Frenchville, ME (04745)

2:13 AM EST on February 08, 2016 (GMT -0500)
K1FTK | | Change Station
CLOSE
Current Station
Personal Weather Station
Location: Saint Agatha, ME
Elevation: 825 ft
Nearby Weather Stations

Elev 825 ft 47.25 °N, 68.35 °W | Updated 3 minutes ago

Light Snow
Light Snow
-1.3 °F
Feels Like -1 °F
N
0.0
Wind Variable Wind from SW
Gusts 0.0 mph

Today
High -- | Low -- °F
--% Chance of Precip.
Yesterday
High -- | Low -- °F
Precip. -- in
Pressure 30.32 in
Visibility 9.0 miles
Clouds Clear
Windchill -1 °F
Dew Point -6 °F
Humidity 81%
Rainfall 0.00 in
Snow Depth Not available.
6:50 AM 4:45 PM
Waning Crescent, 0% visible
METAR KFVE 080653Z AUTO 34003KT 9SM -SN CLR M18/M22 A3025 RMK AO2 UPE26B49E53SNB35E49B53 SLP267 P0000 T11831217
Pressure 30.32 in
Visibility 9.0 miles
Clouds Clear
Windchill -1 °F
Dew Point -6 °F
Humidity 81%
Rainfall 0.00 in
Snow Depth Not available.
6:50 AM 4:45 PM
Waning Crescent, 0% visible
METAR KFVE 080653Z AUTO 34003KT 9SM -SN CLR M18/M22 A3025 RMK AO2 UPE26B49E53SNB35E49B53 SLP267 P0000 T11831217

10-Day Weather Forecast

Almanac

Astronomy

Feb. 08, 2016 Rise Set
Actual Time
Civil Twilight
Nautical Twilight
Astronomical Twilight
Moon
Length of Visible Light
Length of Day
Tomorrow will be .
, % of the Moon is Illuminated

Today's Extremes

State Highs State Lows

Community

WunderPhotos

Upload Photos

1,891,394 photos uploaded!

WunderBlog® & News

Nearby

Air Quality

  Air Quality AQ Index Pollutant
Not available.

Snow Depth

Station Depth Elevation

Earthquake Activity

City Distance Mag. Time & Date
Minimum magnitude displayed is 2.5.

Coastal Water Temperatures

Place Temperature

Stations

Nearby Weather Stations

Station Location Temp. Windchill Dew Point Humidity Wind Precip. Elev Updated Type
                   

Watches & Warnings

There are currently no watches in effect.